sensor_id;sensor_type;location;lat;lon;timestamp;P1;durP1;ratioP1;P2;durP2;ratioP2
20379;SDS011;10349;48.666;8.948;2022-08-20T00:01:01;1.50;;;1.40;;
20379;SDS011;10349;48.666;8.948;2022-08-20T00:03:29;1.60;;;1.50;;
20379;SDS011;10349;48.666;8.948;2022-08-20T00:06:00;2.20;;;1.43;;
20379;SDS011;10349;48.666;8.948;2022-08-20T00:08:27;1.90;;;1.80;;
20379;SDS011;10349;48.666;8.948;2022-08-20T00:10:53;1.70;;;1.60;;
20379;SDS011;10349;48.666;8.948;2022-08-20T00:13:22;2.30;;;2.10;;
20379;SDS011;10349;48.666;8.948;2022-08-20T00:15:56;1.80;;;1.70;;
20379;SDS011;10349;48.666;8.948;2022-08-20T00:18:23;2.30;;;1.60;;
20379;SDS011;10349;48.666;8.948;2022-08-20T00:20:50;3.33;;;1.83;;
20379;SDS011;10349;48.666;8.948;2022-08-20T00:23:18;1.70;;;1.60;;
20379;SDS011;10349;48.666;8.948;2022-08-20T00:25:44;1.87;;;1.77;;
20379;SDS011;10349;48.666;8.948;2022-08-20T00:28:11;1.93;;;1.83;;
20379;SDS011;10349;48.666;8.948;2022-08-20T00:30:38;1.97;;;1.87;;
20379;SDS011;10349;48.666;8.948;2022-08-20T00:33:13;4.40;;;1.80;;
20379;SDS011;10349;48.666;8.948;2022-08-20T00:35:43;2.43;;;1.90;;
20379;SDS011;10349;48.666;8.948;2022-08-20T00:38:13;2.20;;;2.10;;
20379;SDS011;10349;48.666;8.948;2022-08-20T00:40:44;2.10;;;2.00;;
20379;SDS011;10349;48.666;8.948;2022-08-20T00:43:34;2.03;;;1.93;;
20379;SDS011;10349;48.666;8.948;2022-08-20T00:46:07;1.90;;;1.80;;
20379;SDS011;10349;48.666;8.948;2022-08-20T00:48:39;1.70;;;1.60;;
20379;SDS011;10349;48.666;8.948;2022-08-20T00:51:08;1.90;;;1.80;;
20379;SDS011;10349;48.666;8.948;2022-08-20T00:53:39;1.90;;;1.80;;
20379;SDS011;10349;48.666;8.948;2022-08-20T00:56:06;2.03;;;1.93;;
20379;SDS011;10349;48.666;8.948;2022-08-20T00:58:33;2.10;;;2.00;;
20379;SDS011;10349;48.666;8.948;2022-08-20T01:01:01;1.73;;;1.63;;
20379;SDS011;10349;48.666;8.948;2022-08-20T01:03:28;2.30;;;2.20;;
20379;SDS011;10349;48.666;8.948;2022-08-20T01:05:54;2.17;;;2.07;;
20379;SDS011;10349;48.666;8.948;2022-08-20T01:08:20;1.73;;;1.63;;
20379;SDS011;10349;48.666;8.948;2022-08-20T01:10:48;1.90;;;1.80;;
20379;SDS011;10349;48.666;8.948;2022-08-20T01:13:19;3.30;;;1.90;;
20379;SDS011;10349;48.666;8.948;2022-08-20T01:15:48;2.20;;;1.67;;
20379;SDS011;10349;48.666;8.948;2022-08-20T01:18:18;2.13;;;2.03;;
20379;SDS011;10349;48.666;8.948;2022-08-20T01:20:51;1.87;;;1.77;;
20379;SDS011;10349;48.666;8.948;2022-08-20T01:23:27;2.03;;;1.93;;
20379;SDS011;10349;48.666;8.948;2022-08-20T01:26:19;2.10;;;2.00;;
20379;SDS011;10349;48.666;8.948;2022-08-20T01:31:20;2.03;;;1.93;;
20379;SDS011;10349;48.666;8.948;2022-08-20T01:33:48;1.80;;;1.70;;
20379;SDS011;10349;48.666;8.948;2022-08-20T01:36:16;2.50;;;2.03;;
20379;SDS011;10349;48.666;8.948;2022-08-20T01:38:44;2.30;;;2.10;;
20379;SDS011;10349;48.666;8.948;2022-08-20T01:41:15;2.17;;;1.97;;
20379;SDS011;10349;48.666;8.948;2022-08-20T01:43:59;2.10;;;2.00;;
20379;SDS011;10349;48.666;8.948;2022-08-20T01:46:26;1.70;;;1.60;;
20379;SDS011;10349;48.666;8.948;2022-08-20T01:48:57;3.20;;;2.00;;
20379;SDS011;10349;48.666;8.948;2022-08-20T01:51:27;1.90;;;1.80;;
20379;SDS011;10349;48.666;8.948;2022-08-20T01:53:54;1.80;;;1.70;;
20379;SDS011;10349;48.666;8.948;2022-08-20T01:56:24;2.43;;;1.60;;
20379;SDS011;10349;48.666;8.948;2022-08-20T01:58:53;2.00;;;1.90;;
20379;SDS011;10349;48.666;8.948;2022-08-20T02:03:50;2.17;;;2.07;;
20379;SDS011;10349;48.666;8.948;2022-08-20T02:06:16;1.90;;;1.73;;
20379;SDS011;10349;48.666;8.948;2022-08-20T02:08:42;5.40;;;2.50;;
20379;SDS011;10349;48.666;8.948;2022-08-20T02:11:08;2.13;;;2.03;;
20379;SDS011;10349;48.666;8.948;2022-08-20T02:13:34;2.30;;;2.10;;
20379;SDS011;10349;48.666;8.948;2022-08-20T02:16:00;2.30;;;2.20;;
20379;SDS011;10349;48.666;8.948;2022-08-20T02:18:26;2.23;;;2.03;;
20379;SDS011;10349;48.666;8.948;2022-08-20T02:20:52;3.00;;;2.30;;
20379;SDS011;10349;48.666;8.948;2022-08-20T02:23:17;2.37;;;2.27;;
20379;SDS011;10349;48.666;8.948;2022-08-20T02:25:44;2.23;;;2.13;;
20379;SDS011;10349;48.666;8.948;2022-08-20T02:28:12;2.20;;;2.10;;
20379;SDS011;10349;48.666;8.948;2022-08-20T02:30:42;3.20;;;2.80;;
20379;SDS011;10349;48.666;8.948;2022-08-20T02:33:11;3.07;;;2.87;;
20379;SDS011;10349;48.666;8.948;2022-08-20T02:35:40;2.67;;;2.47;;
20379;SDS011;10349;48.666;8.948;2022-08-20T02:38:07;2.20;;;2.10;;
20379;SDS011;10349;48.666;8.948;2022-08-20T02:40:34;2.30;;;2.20;;
20379;SDS011;10349;48.666;8.948;2022-08-20T02:43:00;4.20;;;2.50;;
20379;SDS011;10349;48.666;8.948;2022-08-20T02:45:29;2.07;;;1.97;;
20379;SDS011;10349;48.666;8.948;2022-08-20T02:47:56;2.27;;;2.17;;
20379;SDS011;10349;48.666;8.948;2022-08-20T02:50:23;2.40;;;2.17;;
20379;SDS011;10349;48.666;8.948;2022-08-20T02:52:50;2.70;;;2.43;;
20379;SDS011;10349;48.666;8.948;2022-08-20T02:55:16;2.57;;;2.43;;
20379;SDS011;10349;48.666;8.948;2022-08-20T02:57:42;2.63;;;2.43;;
20379;SDS011;10349;48.666;8.948;2022-08-20T03:00:12;2.77;;;2.57;;
20379;SDS011;10349;48.666;8.948;2022-08-20T03:02:43;2.00;;;1.90;;
20379;SDS011;10349;48.666;8.948;2022-08-20T03:05:09;2.43;;;2.33;;
20379;SDS011;10349;48.666;8.948;2022-08-20T03:07:39;3.10;;;2.83;;
20379;SDS011;10349;48.666;8.948;2022-08-20T03:10:07;2.60;;;2.40;;
20379;SDS011;10349;48.666;8.948;2022-08-20T03:12:33;3.03;;;2.17;;
20379;SDS011;10349;48.666;8.948;2022-08-20T03:14:58;2.57;;;2.47;;
20379;SDS011;10349;48.666;8.948;2022-08-20T03:17:24;3.53;;;2.50;;
20379;SDS011;10349;48.666;8.948;2022-08-20T03:19:49;4.43;;;2.30;;
20379;SDS011;10349;48.666;8.948;2022-08-20T03:22:15;3.10;;;2.90;;
20379;SDS011;10349;48.666;8.948;2022-08-20T03:24:41;2.43;;;2.33;;
20379;SDS011;10349;48.666;8.948;2022-08-20T03:27:06;2.57;;;2.37;;
20379;SDS011;10349;48.666;8.948;2022-08-20T03:29:32;2.97;;;2.77;;
20379;SDS011;10349;48.666;8.948;2022-08-20T03:31:57;3.37;;;3.07;;
20379;SDS011;10349;48.666;8.948;2022-08-20T03:34:23;2.87;;;2.67;;
20379;SDS011;10349;48.666;8.948;2022-08-20T03:36:49;2.97;;;2.77;;
20379;SDS011;10349;48.666;8.948;2022-08-20T03:39:15;2.93;;;2.73;;
20379;SDS011;10349;48.666;8.948;2022-08-20T03:41:40;2.73;;;2.63;;
20379;SDS011;10349;48.666;8.948;2022-08-20T03:44:06;4.00;;;3.70;;
20379;SDS011;10349;48.666;8.948;2022-08-20T03:46:32;3.10;;;2.90;;
20379;SDS011;10349;48.666;8.948;2022-08-20T03:48:58;3.20;;;3.00;;
20379;SDS011;10349;48.666;8.948;2022-08-20T03:51:23;3.80;;;3.60;;
20379;SDS011;10349;48.666;8.948;2022-08-20T03:53:49;3.17;;;2.97;;
20379;SDS011;10349;48.666;8.948;2022-08-20T03:56:15;2.97;;;2.83;;
20379;SDS011;10349;48.666;8.948;2022-08-20T03:58:41;3.47;;;3.17;;
20379;SDS011;10349;48.666;8.948;2022-08-20T04:01:07;3.87;;;3.67;;
20379;SDS011;10349;48.666;8.948;2022-08-20T04:03:33;3.53;;;3.23;;
20379;SDS011;10349;48.666;8.948;2022-08-20T04:05:59;4.07;;;3.87;;
20379;SDS011;10349;48.666;8.948;2022-08-20T04:08:25;3.50;;;3.30;;
20379;SDS011;10349;48.666;8.948;2022-08-20T04:10:53;2.80;;;2.70;;
20379;SDS011;10349;48.666;8.948;2022-08-20T04:13:22;3.10;;;2.90;;
20379;SDS011;10349;48.666;8.948;2022-08-20T04:15:49;3.07;;;2.87;;
20379;SDS011;10349;48.666;8.948;2022-08-20T04:18:17;2.53;;;2.43;;
20379;SDS011;10349;48.666;8.948;2022-08-20T04:20:47;3.20;;;3.00;;
20379;SDS011;10349;48.666;8.948;2022-08-20T04:23:12;3.20;;;3.00;;
20379;SDS011;10349;48.666;8.948;2022-08-20T04:25:39;3.23;;;3.03;;
20379;SDS011;10349;48.666;8.948;2022-08-20T04:28:06;3.13;;;2.93;;
20379;SDS011;10349;48.666;8.948;2022-08-20T04:30:35;9.57;;;2.93;;
20379;SDS011;10349;48.666;8.948;2022-08-20T04:33:01;3.20;;;3.00;;
20379;SDS011;10349;48.666;8.948;2022-08-20T04:35:27;2.93;;;2.80;;
20379;SDS011;10349;48.666;8.948;2022-08-20T04:37:58;3.77;;;3.47;;
20379;SDS011;10349;48.666;8.948;2022-08-20T04:40:30;3.03;;;2.83;;
20379;SDS011;10349;48.666;8.948;2022-08-20T04:43:15;3.40;;;3.20;;
20379;SDS011;10349;48.666;8.948;2022-08-20T04:45:41;3.73;;;3.43;;
20379;SDS011;10349;48.666;8.948;2022-08-20T04:48:07;3.97;;;3.67;;
20379;SDS011;10349;48.666;8.948;2022-08-20T04:50:34;3.30;;;3.10;;
20379;SDS011;10349;48.666;8.948;2022-08-20T04:53:05;3.20;;;3.00;;
20379;SDS011;10349;48.666;8.948;2022-08-20T04:55:34;3.00;;;2.80;;
20379;SDS011;10349;48.666;8.948;2022-08-20T04:58:07;2.90;;;2.70;;
20379;SDS011;10349;48.666;8.948;2022-08-20T05:00:35;4.17;;;3.10;;
20379;SDS011;10349;48.666;8.948;2022-08-20T05:03:01;3.37;;;3.17;;
20379;SDS011;10349;48.666;8.948;2022-08-20T05:05:27;3.37;;;3.17;;
20379;SDS011;10349;48.666;8.948;2022-08-20T05:07:54;3.53;;;3.30;;
20379;SDS011;10349;48.666;8.948;2022-08-20T05:10:22;3.87;;;3.57;;
20379;SDS011;10349;48.666;8.948;2022-08-20T05:12:48;3.27;;;3.07;;
20379;SDS011;10349;48.666;8.948;2022-08-20T05:15:14;5.70;;;3.57;;
20379;SDS011;10349;48.666;8.948;2022-08-20T05:17:40;3.17;;;2.97;;
20379;SDS011;10349;48.666;8.948;2022-08-20T05:20:09;3.50;;;3.27;;
20379;SDS011;10349;48.666;8.948;2022-08-20T05:22:38;4.40;;;4.10;;
20379;SDS011;10349;48.666;8.948;2022-08-20T05:25:04;3.70;;;3.43;;
20379;SDS011;10349;48.666;8.948;2022-08-20T05:27:30;4.00;;;3.70;;
20379;SDS011;10349;48.666;8.948;2022-08-20T05:30:00;3.93;;;3.73;;
20379;SDS011;10349;48.666;8.948;2022-08-20T05:32:31;3.50;;;3.30;;
20379;SDS011;10349;48.666;8.948;2022-08-20T05:34:57;3.17;;;2.97;;
20379;SDS011;10349;48.666;8.948;2022-08-20T05:37:24;3.53;;;3.23;;
20379;SDS011;10349;48.666;8.948;2022-08-20T05:39:50;4.00;;;3.70;;
20379;SDS011;10349;48.666;8.948;2022-08-20T05:42:16;3.83;;;3.63;;
20379;SDS011;10349;48.666;8.948;2022-08-20T05:44:42;4.30;;;4.03;;
20379;SDS011;10349;48.666;8.948;2022-08-20T05:47:11;4.13;;;3.93;;
20379;SDS011;10349;48.666;8.948;2022-08-20T05:49:37;7.70;;;4.10;;
20379;SDS011;10349;48.666;8.948;2022-08-20T05:52:04;4.40;;;4.00;;
20379;SDS011;10349;48.666;8.948;2022-08-20T05:54:30;5.20;;;4.70;;
20379;SDS011;10349;48.666;8.948;2022-08-20T05:56:56;4.30;;;4.00;;
20379;SDS011;10349;48.666;8.948;2022-08-20T05:59:22;4.53;;;4.23;;
20379;SDS011;10349;48.666;8.948;2022-08-20T06:01:49;5.80;;;4.37;;
20379;SDS011;10349;48.666;8.948;2022-08-20T06:04:15;3.90;;;3.70;;
20379;SDS011;10349;48.666;8.948;2022-08-20T06:07:03;5.47;;;4.00;;
20379;SDS011;10349;48.666;8.948;2022-08-20T06:09:30;4.50;;;4.10;;
20379;SDS011;10349;48.666;8.948;2022-08-20T06:11:57;4.00;;;3.80;;
20379;SDS011;10349;48.666;8.948;2022-08-20T06:14:27;3.77;;;3.47;;
20379;SDS011;10349;48.666;8.948;2022-08-20T06:16:53;4.40;;;4.03;;
20379;SDS011;10349;48.666;8.948;2022-08-20T06:19:19;4.33;;;4.03;;
20379;SDS011;10349;48.666;8.948;2022-08-20T06:21:44;3.67;;;3.40;;
20379;SDS011;10349;48.666;8.948;2022-08-20T06:24:10;4.63;;;4.10;;
20379;SDS011;10349;48.666;8.948;2022-08-20T06:26:36;3.70;;;3.50;;
20379;SDS011;10349;48.666;8.948;2022-08-20T06:29:02;3.90;;;3.70;;
20379;SDS011;10349;48.666;8.948;2022-08-20T06:31:29;3.90;;;3.27;;
20379;SDS011;10349;48.666;8.948;2022-08-20T06:33:55;3.60;;;3.40;;
20379;SDS011;10349;48.666;8.948;2022-08-20T06:36:21;3.63;;;3.43;;
20379;SDS011;10349;48.666;8.948;2022-08-20T06:38:47;4.30;;;4.10;;
20379;SDS011;10349;48.666;8.948;2022-08-20T06:41:12;3.57;;;3.37;;
20379;SDS011;10349;48.666;8.948;2022-08-20T06:43:38;4.33;;;3.93;;
20379;SDS011;10349;48.666;8.948;2022-08-20T06:46:04;3.33;;;3.03;;
20379;SDS011;10349;48.666;8.948;2022-08-20T06:48:30;3.63;;;3.33;;
20379;SDS011;10349;48.666;8.948;2022-08-20T06:50:56;4.70;;;4.40;;
20379;SDS011;10349;48.666;8.948;2022-08-20T06:53:22;4.20;;;3.90;;
20379;SDS011;10349;48.666;8.948;2022-08-20T06:55:49;4.00;;;3.70;;
20379;SDS011;10349;48.666;8.948;2022-08-20T06:58:19;4.20;;;3.90;;
20379;SDS011;10349;48.666;8.948;2022-08-20T07:00:46;3.60;;;3.40;;
20379;SDS011;10349;48.666;8.948;2022-08-20T07:03:12;7.53;;;3.50;;
20379;SDS011;10349;48.666;8.948;2022-08-20T07:05:40;4.90;;;4.50;;
20379;SDS011;10349;48.666;8.948;2022-08-20T07:08:09;3.63;;;3.33;;
20379;SDS011;10349;48.666;8.948;2022-08-20T07:10:39;3.60;;;3.30;;
20379;SDS011;10349;48.666;8.948;2022-08-20T07:13:07;4.00;;;3.70;;
20379;SDS011;10349;48.666;8.948;2022-08-20T07:15:33;4.00;;;3.70;;
20379;SDS011;10349;48.666;8.948;2022-08-20T07:18:00;3.83;;;3.63;;
20379;SDS011;10349;48.666;8.948;2022-08-20T07:20:28;3.77;;;3.47;;
20379;SDS011;10349;48.666;8.948;2022-08-20T07:22:56;3.90;;;3.60;;
20379;SDS011;10349;48.666;8.948;2022-08-20T07:25:22;4.20;;;3.90;;
20379;SDS011;10349;48.666;8.948;2022-08-20T07:27:48;4.73;;;4.40;;
20379;SDS011;10349;48.666;8.948;2022-08-20T07:30:25;4.83;;;4.50;;
20379;SDS011;10349;48.666;8.948;2022-08-20T07:33:10;4.10;;;3.80;;
20379;SDS011;10349;48.666;8.948;2022-08-20T07:35:38;3.77;;;3.47;;
20379;SDS011;10349;48.666;8.948;2022-08-20T07:38:05;4.20;;;3.87;;
20379;SDS011;10349;48.666;8.948;2022-08-20T07:40:33;3.97;;;3.77;;
20379;SDS011;10349;48.666;8.948;2022-08-20T07:42:59;3.90;;;3.70;;
20379;SDS011;10349;48.666;8.948;2022-08-20T07:45:27;4.20;;;4.00;;
20379;SDS011;10349;48.666;8.948;2022-08-20T07:47:54;4.93;;;4.07;;
20379;SDS011;10349;48.666;8.948;2022-08-20T07:50:30;4.00;;;3.70;;
20379;SDS011;10349;48.666;8.948;2022-08-20T07:52:56;4.40;;;4.10;;
20379;SDS011;10349;48.666;8.948;2022-08-20T07:55:25;4.50;;;4.10;;
20379;SDS011;10349;48.666;8.948;2022-08-20T07:57:51;4.30;;;4.10;;
20379;SDS011;10349;48.666;8.948;2022-08-20T08:00:17;4.20;;;3.80;;
20379;SDS011;10349;48.666;8.948;2022-08-20T08:02:46;4.23;;;3.90;;
20379;SDS011;10349;48.666;8.948;2022-08-20T08:05:12;4.43;;;4.10;;
20379;SDS011;10349;48.666;8.948;2022-08-20T08:07:38;3.70;;;3.40;;
20379;SDS011;10349;48.666;8.948;2022-08-20T08:10:05;3.17;;;2.97;;
20379;SDS011;10349;48.666;8.948;2022-08-20T08:12:37;4.73;;;3.70;;
20379;SDS011;10349;48.666;8.948;2022-08-20T08:15:07;3.13;;;2.90;;
20379;SDS011;10349;48.666;8.948;2022-08-20T08:17:36;4.00;;;3.67;;
20379;SDS011;10349;48.666;8.948;2022-08-20T08:20:03;3.93;;;3.73;;
20379;SDS011;10349;48.666;8.948;2022-08-20T08:22:30;4.20;;;3.90;;
20379;SDS011;10349;48.666;8.948;2022-08-20T08:24:56;3.53;;;3.33;;
20379;SDS011;10349;48.666;8.948;2022-08-20T08:27:26;3.70;;;3.50;;
20379;SDS011;10349;48.666;8.948;2022-08-20T08:29:56;4.40;;;4.10;;
20379;SDS011;10349;48.666;8.948;2022-08-20T08:32:23;4.23;;;3.83;;
20379;SDS011;10349;48.666;8.948;2022-08-20T08:34:49;3.70;;;3.50;;
20379;SDS011;10349;48.666;8.948;2022-08-20T08:37:15;4.00;;;3.70;;
20379;SDS011;10349;48.666;8.948;2022-08-20T08:39:41;4.60;;;3.80;;
20379;SDS011;10349;48.666;8.948;2022-08-20T08:42:16;3.73;;;3.43;;
20379;SDS011;10349;48.666;8.948;2022-08-20T08:44:51;3.73;;;3.53;;
20379;SDS011;10349;48.666;8.948;2022-08-20T08:47:23;3.53;;;3.33;;
20379;SDS011;10349;48.666;8.948;2022-08-20T08:49:55;3.53;;;3.33;;
20379;SDS011;10349;48.666;8.948;2022-08-20T08:52:26;4.10;;;3.90;;
20379;SDS011;10349;48.666;8.948;2022-08-20T08:54:55;4.07;;;3.80;;
20379;SDS011;10349;48.666;8.948;2022-08-20T08:57:23;3.80;;;3.43;;
20379;SDS011;10349;48.666;8.948;2022-08-20T08:59:53;3.43;;;3.23;;
20379;SDS011;10349;48.666;8.948;2022-08-20T09:02:25;3.50;;;3.20;;
20379;SDS011;10349;48.666;8.948;2022-08-20T09:04:52;3.07;;;2.87;;
20379;SDS011;10349;48.666;8.948;2022-08-20T09:07:20;3.50;;;3.30;;
20379;SDS011;10349;48.666;8.948;2022-08-20T09:09:48;2.70;;;2.50;;
20379;SDS011;10349;48.666;8.948;2022-08-20T09:12:16;3.20;;;3.00;;
20379;SDS011;10349;48.666;8.948;2022-08-20T09:14:48;2.53;;;2.33;;
20379;SDS011;10349;48.666;8.948;2022-08-20T09:17:16;2.83;;;2.63;;
20379;SDS011;10349;48.666;8.948;2022-08-20T09:19:43;2.40;;;2.30;;
20379;SDS011;10349;48.666;8.948;2022-08-20T09:22:15;2.23;;;2.10;;
20379;SDS011;10349;48.666;8.948;2022-08-20T09:24:43;2.53;;;2.43;;
20379;SDS011;10349;48.666;8.948;2022-08-20T09:27:09;2.37;;;2.27;;
20379;SDS011;10349;48.666;8.948;2022-08-20T09:29:35;2.80;;;2.60;;
20379;SDS011;10349;48.666;8.948;2022-08-20T09:32:05;2.77;;;2.57;;
20379;SDS011;10349;48.666;8.948;2022-08-20T09:34:40;2.50;;;2.33;;
20379;SDS011;10349;48.666;8.948;2022-08-20T09:37:10;3.07;;;2.57;;
20379;SDS011;10349;48.666;8.948;2022-08-20T09:39:37;2.83;;;2.63;;
20379;SDS011;10349;48.666;8.948;2022-08-20T09:42:10;2.50;;;2.33;;
20379;SDS011;10349;48.666;8.948;2022-08-20T09:44:38;2.77;;;2.57;;
20379;SDS011;10349;48.666;8.948;2022-08-20T09:47:04;3.17;;;2.97;;
20379;SDS011;10349;48.666;8.948;2022-08-20T09:49:30;3.10;;;2.97;;
20379;SDS011;10349;48.666;8.948;2022-08-20T09:51:56;2.70;;;2.50;;
20379;SDS011;10349;48.666;8.948;2022-08-20T09:54:23;2.93;;;2.73;;
20379;SDS011;10349;48.666;8.948;2022-08-20T09:56:55;2.17;;;2.07;;
20379;SDS011;10349;48.666;8.948;2022-08-20T09:59:22;2.70;;;2.50;;
20379;SDS011;10349;48.666;8.948;2022-08-20T10:01:48;2.43;;;2.30;;
20379;SDS011;10349;48.666;8.948;2022-08-20T10:04:14;2.10;;;2.00;;
20379;SDS011;10349;48.666;8.948;2022-08-20T10:06:40;2.20;;;2.10;;
20379;SDS011;10349;48.666;8.948;2022-08-20T10:09:06;1.83;;;1.73;;
20379;SDS011;10349;48.666;8.948;2022-08-20T10:11:32;2.83;;;2.63;;
20379;SDS011;10349;48.666;8.948;2022-08-20T10:13:58;2.00;;;1.90;;
20379;SDS011;10349;48.666;8.948;2022-08-20T10:16:24;2.70;;;2.50;;
20379;SDS011;10349;48.666;8.948;2022-08-20T10:18:49;2.07;;;1.97;;
20379;SDS011;10349;48.666;8.948;2022-08-20T10:21:15;2.23;;;2.13;;
20379;SDS011;10349;48.666;8.948;2022-08-20T10:23:41;2.53;;;1.73;;
20379;SDS011;10349;48.666;8.948;2022-08-20T10:26:07;1.80;;;1.70;;
20379;SDS011;10349;48.666;8.948;2022-08-20T10:28:37;1.83;;;1.73;;
20379;SDS011;10349;48.666;8.948;2022-08-20T10:31:07;1.30;;;1.20;;
20379;SDS011;10349;48.666;8.948;2022-08-20T10:33:34;1.60;;;1.50;;
20379;SDS011;10349;48.666;8.948;2022-08-20T10:36:09;1.40;;;1.30;;
20379;SDS011;10349;48.666;8.948;2022-08-20T10:38:39;1.93;;;1.20;;
20379;SDS011;10349;48.666;8.948;2022-08-20T10:41:07;1.10;;;1.00;;
20379;SDS011;10349;48.666;8.948;2022-08-20T10:43:34;1.13;;;1.03;;
20379;SDS011;10349;48.666;8.948;2022-08-20T10:46:00;3.13;;;1.43;;
20379;SDS011;10349;48.666;8.948;2022-08-20T10:48:26;1.50;;;1.40;;
20379;SDS011;10349;48.666;8.948;2022-08-20T10:50:52;1.63;;;1.47;;
20379;SDS011;10349;48.666;8.948;2022-08-20T10:53:18;1.33;;;1.23;;
20379;SDS011;10349;48.666;8.948;2022-08-20T10:55:44;1.30;;;1.20;;
20379;SDS011;10349;48.666;8.948;2022-08-20T10:58:10;1.50;;;1.40;;
20379;SDS011;10349;48.666;8.948;2022-08-20T11:00:37;1.37;;;1.27;;
20379;SDS011;10349;48.666;8.948;2022-08-20T11:03:04;1.30;;;1.20;;
20379;SDS011;10349;48.666;8.948;2022-08-20T11:05:30;1.57;;;1.47;;
20379;SDS011;10349;48.666;8.948;2022-08-20T11:07:56;1.63;;;1.37;;
20379;SDS011;10349;48.666;8.948;2022-08-20T11:10:27;1.20;;;1.10;;
20379;SDS011;10349;48.666;8.948;2022-08-20T11:12:54;1.43;;;1.33;;
20379;SDS011;10349;48.666;8.948;2022-08-20T11:15:20;1.30;;;1.20;;
20379;SDS011;10349;48.666;8.948;2022-08-20T11:17:46;4.03;;;1.83;;
20379;SDS011;10349;48.666;8.948;2022-08-20T11:20:12;1.63;;;1.53;;
20379;SDS011;10349;48.666;8.948;2022-08-20T11:22:40;2.20;;;1.30;;
20379;SDS011;10349;48.666;8.948;2022-08-20T11:25:05;1.47;;;1.23;;
20379;SDS011;10349;48.666;8.948;2022-08-20T11:27:33;1.40;;;1.30;;
20379;SDS011;10349;48.666;8.948;2022-08-20T11:30:03;1.50;;;1.40;;
20379;SDS011;10349;48.666;8.948;2022-08-20T11:32:30;1.30;;;1.20;;
20379;SDS011;10349;48.666;8.948;2022-08-20T11:34:56;1.20;;;1.10;;
20379;SDS011;10349;48.666;8.948;2022-08-20T11:37:22;1.50;;;1.40;;
20379;SDS011;10349;48.666;8.948;2022-08-20T11:39:49;1.10;;;1.00;;
20379;SDS011;10349;48.666;8.948;2022-08-20T11:42:15;1.40;;;1.30;;
20379;SDS011;10349;48.666;8.948;2022-08-20T11:44:41;1.57;;;0.90;;
20379;SDS011;10349;48.666;8.948;2022-08-20T11:47:07;1.20;;;1.10;;
20379;SDS011;10349;48.666;8.948;2022-08-20T11:49:35;1.30;;;1.20;;
20379;SDS011;10349;48.666;8.948;2022-08-20T11:52:01;1.10;;;1.00;;
20379;SDS011;10349;48.666;8.948;2022-08-20T11:54:28;1.00;;;0.90;;
20379;SDS011;10349;48.666;8.948;2022-08-20T11:56:55;1.10;;;1.00;;
20379;SDS011;10349;48.666;8.948;2022-08-20T11:59:22;1.10;;;0.80;;
20379;SDS011;10349;48.666;8.948;2022-08-20T12:01:48;1.20;;;1.10;;
20379;SDS011;10349;48.666;8.948;2022-08-20T12:04:14;1.03;;;0.93;;
20379;SDS011;10349;48.666;8.948;2022-08-20T12:06:40;0.90;;;0.80;;
20379;SDS011;10349;48.666;8.948;2022-08-20T12:09:06;0.90;;;0.73;;
20379;SDS011;10349;48.666;8.948;2022-08-20T12:11:31;1.50;;;1.40;;
20379;SDS011;10349;48.666;8.948;2022-08-20T12:13:57;0.90;;;0.73;;
20379;SDS011;10349;48.666;8.948;2022-08-20T12:16:23;1.27;;;1.10;;
20379;SDS011;10349;48.666;8.948;2022-08-20T12:18:48;0.90;;;0.80;;
20379;SDS011;10349;48.666;8.948;2022-08-20T12:21:14;1.03;;;0.93;;
20379;SDS011;10349;48.666;8.948;2022-08-20T12:23:40;1.40;;;1.30;;
20379;SDS011;10349;48.666;8.948;2022-08-20T12:26:06;1.30;;;1.20;;
20379;SDS011;10349;48.666;8.948;2022-08-20T12:28:32;1.33;;;1.00;;
20379;SDS011;10349;48.666;8.948;2022-08-20T12:30:57;1.30;;;1.20;;
20379;SDS011;10349;48.666;8.948;2022-08-20T12:33:23;1.40;;;1.30;;
20379;SDS011;10349;48.666;8.948;2022-08-20T12:35:49;1.53;;;1.40;;
20379;SDS011;10349;48.666;8.948;2022-08-20T12:38:15;1.20;;;1.10;;
20379;SDS011;10349;48.666;8.948;2022-08-20T12:40:41;1.10;;;0.90;;
20379;SDS011;10349;48.666;8.948;2022-08-20T12:43:06;1.00;;;0.70;;
20379;SDS011;10349;48.666;8.948;2022-08-20T12:45:33;1.00;;;0.90;;
20379;SDS011;10349;48.666;8.948;2022-08-20T12:48:07;1.30;;;1.20;;
20379;SDS011;10349;48.666;8.948;2022-08-20T12:50:34;1.30;;;1.20;;
20379;SDS011;10349;48.666;8.948;2022-08-20T12:53:00;1.50;;;1.40;;
20379;SDS011;10349;48.666;8.948;2022-08-20T12:55:27;2.27;;;1.57;;
20379;SDS011;10349;48.666;8.948;2022-08-20T12:57:54;1.57;;;1.47;;
20379;SDS011;10349;48.666;8.948;2022-08-20T13:00:27;1.30;;;1.20;;
20379;SDS011;10349;48.666;8.948;2022-08-20T13:02:55;1.00;;;0.90;;
20379;SDS011;10349;48.666;8.948;2022-08-20T13:05:22;1.10;;;0.97;;
20379;SDS011;10349;48.666;8.948;2022-08-20T13:07:49;1.00;;;0.87;;
20379;SDS011;10349;48.666;8.948;2022-08-20T13:10:17;1.30;;;1.10;;
20379;SDS011;10349;48.666;8.948;2022-08-20T13:12:45;1.10;;;1.00;;
20379;SDS011;10349;48.666;8.948;2022-08-20T13:15:11;1.10;;;1.00;;
20379;SDS011;10349;48.666;8.948;2022-08-20T13:17:37;1.10;;;1.00;;
20379;SDS011;10349;48.666;8.948;2022-08-20T13:20:04;1.20;;;1.10;;
20379;SDS011;10349;48.666;8.948;2022-08-20T13:22:32;1.30;;;1.20;;
20379;SDS011;10349;48.666;8.948;2022-08-20T13:24:57;1.37;;;1.27;;
20379;SDS011;10349;48.666;8.948;2022-08-20T13:27:23;1.17;;;1.07;;
20379;SDS011;10349;48.666;8.948;2022-08-20T13:29:50;1.20;;;1.10;;
20379;SDS011;10349;48.666;8.948;2022-08-20T13:32:17;1.30;;;1.20;;
20379;SDS011;10349;48.666;8.948;2022-08-20T13:34:43;1.20;;;1.10;;
20379;SDS011;10349;48.666;8.948;2022-08-20T13:37:17;1.40;;;1.30;;
20379;SDS011;10349;48.666;8.948;2022-08-20T13:39:44;1.33;;;1.23;;
20379;SDS011;10349;48.666;8.948;2022-08-20T13:42:10;1.43;;;1.33;;
20379;SDS011;10349;48.666;8.948;2022-08-20T13:44:37;1.50;;;1.40;;
20379;SDS011;10349;48.666;8.948;2022-08-20T13:49:42;1.60;;;1.50;;
20379;SDS011;10349;48.666;8.948;2022-08-20T13:52:09;1.33;;;1.23;;
20379;SDS011;10349;48.666;8.948;2022-08-20T13:54:35;1.23;;;1.13;;
20379;SDS011;10349;48.666;8.948;2022-08-20T13:57:04;1.73;;;1.63;;
20379;SDS011;10349;48.666;8.948;2022-08-20T13:59:36;1.33;;;1.23;;
20379;SDS011;10349;48.666;8.948;2022-08-20T14:02:04;1.33;;;1.23;;
20379;SDS011;10349;48.666;8.948;2022-08-20T14:04:30;1.30;;;1.20;;
20379;SDS011;10349;48.666;8.948;2022-08-20T14:06:55;1.20;;;1.10;;
20379;SDS011;10349;48.666;8.948;2022-08-20T14:09:21;1.20;;;1.10;;
20379;SDS011;10349;48.666;8.948;2022-08-20T14:11:47;1.77;;;1.67;;
20379;SDS011;10349;48.666;8.948;2022-08-20T14:14:12;1.63;;;1.53;;
20379;SDS011;10349;48.666;8.948;2022-08-20T14:16:38;1.20;;;1.10;;
20379;SDS011;10349;48.666;8.948;2022-08-20T14:19:04;1.00;;;0.90;;
20379;SDS011;10349;48.666;8.948;2022-08-20T14:21:30;1.20;;;1.10;;
20379;SDS011;10349;48.666;8.948;2022-08-20T14:23:55;1.10;;;1.00;;
20379;SDS011;10349;48.666;8.948;2022-08-20T14:26:22;1.30;;;1.20;;
20379;SDS011;10349;48.666;8.948;2022-08-20T14:28:48;1.20;;;1.10;;
20379;SDS011;10349;48.666;8.948;2022-08-20T14:31:14;2.43;;;0.83;;
20379;SDS011;10349;48.666;8.948;2022-08-20T14:33:40;1.50;;;0.90;;
20379;SDS011;10349;48.666;8.948;2022-08-20T14:36:05;1.00;;;0.80;;
20379;SDS011;10349;48.666;8.948;2022-08-20T14:38:31;0.90;;;0.63;;
20379;SDS011;10349;48.666;8.948;2022-08-20T14:40:57;0.90;;;0.80;;
20379;SDS011;10349;48.666;8.948;2022-08-20T14:43:22;1.00;;;0.80;;
20379;SDS011;10349;48.666;8.948;2022-08-20T14:45:48;1.10;;;0.87;;
20379;SDS011;10349;48.666;8.948;2022-08-20T14:48:13;1.70;;;0.87;;
20379;SDS011;10349;48.666;8.948;2022-08-20T14:50:39;1.00;;;0.77;;
20379;SDS011;10349;48.666;8.948;2022-08-20T14:53:05;0.90;;;0.73;;
20379;SDS011;10349;48.666;8.948;2022-08-20T14:55:33;1.03;;;0.90;;
20379;SDS011;10349;48.666;8.948;2022-08-20T14:58:04;1.00;;;0.87;;